Time;durP1;ratioP1;P1;durP2;ratioP2;P2;SDS_P1;SDS_P2;PMS_P1;PMS_P2;Temp;Humidity;BMP_temperature;BMP_pressure;BME280_temperature;BME280_humidity;BME280_pressure;Samples;Min_cycle;Max_cycle;Signal;HPM_P1;HPM_P2
2022/10/28 00:01:07;;;;;;;20.33;9.75;;;;;;;13.11;100.00;101736.09;5073672;28;21065;-90
2022/10/28 00:03:40;;;;;;;17.20;9.32;;;;;;;13.14;100.00;101746.50;5067222;28;20039;-90
2022/10/28 00:06:10;;;;;;;19.98;9.70;;;;;;;13.05;100.00;101742.28;5078492;28;20028;-89
2022/10/28 00:08:39;;;;;;;17.45;10.13;;;;;;;13.09;100.00;101747.44;5082093;28;20016;-89
2022/10/28 00:11:10;;;;;;;16.95;9.63;;;;;;;12.98;100.00;101737.22;5068819;28;20036;-90
2022/10/28 00:13:36;;;;;;;18.95;10.10;;;;;;;13.01;100.00;101742.38;5068917;28;20037;-89
2022/10/28 00:16:13;;;;;;;19.45;9.65;;;;;;;13.02;100.00;101757.13;5068452;28;20378;-89
2022/10/28 00:18:39;;;;;;;19.58;10.18;;;;;;;13.02;100.00;101757.13;5054154;28;20067;-89
2022/10/28 00:21:14;;;;;;;18.77;9.88;;;;;;;12.99;100.00;101745.00;5069035;28;20481;-91
2022/10/28 00:23:40;;;;;;;20.38;10.18;;;;;;;12.96;100.00;101742.50;5079798;28;20596;-90
2022/10/28 00:26:10;;;;;;;18.20;9.82;;;;;;;12.97;100.00;101746.78;5069508;28;20100;-90
2022/10/28 00:28:41;;;;;;;19.02;9.93;;;;;;;12.96;100.00;101749.44;5068187;28;20432;-90
2022/10/28 00:31:08;;;;;;;19.15;9.93;;;;;;;12.89;100.00;101742.63;5069297;28;20025;-89
2022/10/28 00:33:33;;;;;;;18.98;9.65;;;;;;;12.84;100.00;101734.03;5064883;28;20027;-90
2022/10/28 00:36:18;;;;;;;21.33;10.40;;;;;;;12.89;100.00;101742.63;5068909;28;20024;-90
2022/10/28 00:38:46;;;;;;;19.63;10.23;;;;;;;12.78;100.00;101742.81;5068378;28;20021;-90
2022/10/28 00:41:19;;;;;;;19.48;10.18;;;;;;;12.79;100.00;101756.69;5068147;28;20128;-90
2022/10/28 00:43:47;;;;;;;22.20;10.18;;;;;;;12.75;100.00;101736.81;5067509;28;20642;-90
2022/10/28 00:46:31;;;;;;;19.73;10.35;;;;;;;12.71;100.00;101751.63;5067654;28;20108;-89
2022/10/28 00:49:01;;;;;;;16.13;9.47;;;;;;;12.65;100.00;101743.94;5073203;28;20023;-90
2022/10/28 00:51:29;;;;;;;20.27;9.95;;;;;;;12.61;100.00;101739.69;5071766;28;20028;-89
2022/10/28 00:53:56;;;;;;;19.40;10.30;;;;;;;12.60;100.00;101741.41;5070431;28;20115;-90
2022/10/28 00:56:25;;;;;;;22.67;10.80;;;;;;;12.55;100.00;101732.84;5069241;28;20063;-89
2022/10/28 00:58:55;;;;;;;23.90;10.82;;;;;;;12.55;100.00;101739.78;5067083;28;20043;-89
2022/10/28 01:01:20;;;;;;;22.88;10.20;;;;;;;12.49;100.00;101722.53;5068819;28;20107;-89
2022/10/28 01:03:46;;;;;;;23.23;10.27;;;;;;;12.45;100.00;101723.47;5069430;28;20024;-89
2022/10/28 01:06:13;;;;;;;21.75;10.55;;;;;;;12.44;100.00;101721.75;5068446;28;20473;-91
2022/10/28 01:08:38;;;;;;;21.25;10.88;;;;;;;12.41;100.00;101723.56;5056038;28;20417;-90
2022/10/28 01:11:17;;;;;;;21.95;9.95;;;;;;;12.40;100.00;101719.25;5069276;28;20051;-90
2022/10/28 01:13:54;;;;;;;24.10;10.70;;;;;;;12.35;100.00;101711.50;5070841;28;20501;-90
2022/10/28 01:16:52;;;;;;;19.52;9.63;;;;;;;12.33;100.00;101708.09;5070020;28;20040;-89
2022/10/28 01:19:29;;;;;;;20.20;10.45;;;;;;;12.32;100.00;101698.56;5071977;28;20028;-90
2022/10/28 01:21:54;;;;;;;17.85;10.00;;;;;;;12.30;100.00;101696.88;5072429;28;20104;-90
2022/10/28 01:24:44;;;;;;;20.00;10.10;;;;;;;12.24;100.00;101684.84;5083325;28;20115;-90
2022/10/28 01:27:30;;;;;;;15.90;9.27;;;;;;;12.26;100.00;101698.69;5066341;28;20032;-89
2022/10/28 01:30:11;;;;;;;19.13;9.98;;;;;;;12.24;100.00;101701.28;5072710;28;20024;-89
2022/10/28 01:33:01;;;;;;;19.10;10.30;;;;;;;12.22;100.00;101699.59;5071148;28;20103;-90
2022/10/28 01:35:30;;;;;;;22.02;10.13;;;;;;;12.17;100.00;101698.81;5069896;28;20067;-90
2022/10/28 01:38:13;;;;;;;21.73;10.10;;;;;;;12.15;100.00;101692.78;5084955;28;20195;-90
2022/10/28 01:41:10;;;;;;;20.95;10.57;;;;;;;12.13;100.00;101702.38;5072442;28;20024;-89
2022/10/28 01:43:41;;;;;;;24.55;10.23;;;;;;;12.04;100.00;101690.38;5067207;28;20121;-90
2022/10/28 01:46:16;;;;;;;20.77;10.23;;;;;;;12.04;100.00;101692.09;5071053;28;20420;-89
2022/10/28 01:48:52;;;;;;;21.48;10.15;;;;;;;12.04;100.00;101699.91;5067297;28;20025;-89
2022/10/28 01:51:27;;;;;;;21.60;10.38;;;;;;;12.00;100.00;101691.31;5071172;28;20031;-90
2022/10/28 01:53:56;;;;;;;20.13;11.15;;;;;;;11.97;100.00;101690.50;5070636;28;20036;-89
2022/10/28 01:56:26;;;;;;;19.73;10.07;;;;;;;11.97;100.00;101698.28;5072028;28;20031;-90
2022/10/28 01:58:55;;;;;;;20.52;10.45;;;;;;;11.93;100.00;101694.88;5071770;28;20059;-89
2022/10/28 02:01:22;;;;;;;18.45;10.10;;;;;;;11.84;100.00;101677.69;5084833;28;20021;-90
2022/10/28 02:03:47;;;;;;;20.88;10.48;;;;;;;11.86;100.00;101688.06;5076427;28;20099;-90
2022/10/28 02:06:19;;;;;;;22.42;10.10;;;;;;;11.85;100.00;101692.41;5070218;28;20125;-90
2022/10/28 02:09:14;;;;;;;18.63;10.27;;;;;;;11.86;100.00;101693.25;5071854;28;20529;-90
2022/10/28 02:11:48;;;;;;;;;;;;;;;11.87;100.00;101690.63;5070690;28;20032;-90
2022/10/28 02:14:31;;;;;;;15.98;9.18;;;;;;;11.82;100.00;101687.25;5069682;28;19908;-90
2022/10/28 02:17:02;;;;;;;19.63;9.68;;;;;;;11.79;100.00;101689.03;5070302;28;20039;-89
2022/10/28 02:19:56;;;;;;;20.65;10.18;;;;;;;11.76;100.00;101689.94;5074097;28;20032;-89
2022/10/28 02:22:44;;;;;;;27.00;11.73;;;;;;;11.75;100.00;101689.94;5067386;28;20481;-89
2022/10/28 02:25:18;;;;;;;19.80;10.25;;;;;;;11.71;100.00;101689.13;5071251;28;20024;-90
2022/10/28 02:28:00;;;;;;;24.15;10.68;;;;;;;11.62;100.00;101684.06;5069980;28;20035;-89
2022/10/28 02:30:37;;;;;;;21.30;10.80;;;;;;;11.67;100.00;101691.78;5056377;28;20236;-89
2022/10/28 02:33:08;;;;;;;22.55;10.50;;;;;;;11.66;100.00;101690.94;5077057;28;20031;-89
2022/10/28 02:35:40;;;;;;;19.52;10.65;;;;;;;11.63;100.00;101690.09;5068488;28;20028;-89
2022/10/28 02:38:10;;;;;;;21.52;10.00;;;;;;;11.55;100.00;101685.03;5069991;28;20048;-89
2022/10/28 02:40:37;;;;;;;19.45;10.27;;;;;;;11.54;100.00;101678.09;5071331;28;20070;-89
2022/10/28 02:43:07;;;;;;;19.77;10.20;;;;;;;11.58;100.00;101684.13;5068619;28;20494;-89
2022/10/28 02:45:42;;;;;;;20.33;10.63;;;;;;;11.54;100.00;101682.44;5069284;28;20025;-89
2022/10/28 02:48:13;;;;;;;20.08;10.20;;;;;;;11.49;100.00;101669.53;5067998;28;20028;-90
2022/10/28 02:50:44;;;;;;;21.50;10.15;;;;;;;11.51;100.00;101682.50;5074518;28;20428;-89
2022/10/28 02:53:17;;;;;;;19.77;10.18;;;;;;;11.49;100.00;101683.38;5070506;28;20393;-90
2022/10/28 02:55:45;;;;;;;26.58;11.90;;;;;;;11.47;100.00;101671.28;5070588;28;20607;-89
2022/10/28 02:58:11;;;;;;;20.67;10.38;;;;;;;11.53;100.00;101673.81;5069711;28;20435;-89
2022/10/28 03:00:36;;;;;;;19.67;10.27;;;;;;;11.53;100.00;101672.97;5068168;28;20586;-90
2022/10/28 03:03:02;;;;;;;19.50;10.45;;;;;;;11.52;100.00;101677.28;5067925;28;20031;-89
2022/10/28 03:05:28;;;;;;;19.20;10.20;;;;;;;11.50;100.00;101676.44;5072169;28;20535;-89
2022/10/28 03:07:53;;;;;;;20.33;10.48;;;;;;;11.49;100.00;101674.72;5069628;28;20032;-89
2022/10/28 03:10:19;;;;;;;19.25;9.75;;;;;;;11.49;100.00;101672.13;5068809;28;20048;-89
2022/10/28 03:12:44;;;;;;;23.08;10.32;;;;;;;11.47;100.00;101668.69;5069402;28;20020;-89
2022/10/28 03:15:10;;;;;;;21.65;10.55;;;;;;;11.45;100.00;101675.66;5069884;28;20598;-90
2022/10/28 03:17:35;;;;;;;26.95;12.32;;;;;;;11.39;100.00;101665.38;5068089;28;20020;-90
2022/10/28 03:20:14;;;;;;;32.13;14.13;;;;;;;11.43;100.00;101682.59;5068911;28;20396;-90
2022/10/28 03:22:43;;;;;;;34.83;14.27;;;;;;;11.37;100.00;101670.56;5070154;28;20263;-90
2022/10/28 03:25:08;;;;;;;27.05;12.73;;;;;;;11.37;100.00;101673.16;5068788;28;20028;-90
2022/10/28 03:27:34;;;;;;;30.52;13.65;;;;;;;11.31;100.00;101662.88;5069921;28;20025;-90
2022/10/28 03:29:59;;;;;;;29.88;13.55;;;;;;;11.29;100.00;101658.56;5068702;28;20020;-89
2022/10/28 03:32:25;;;;;;;26.35;11.95;;;;;;;11.29;100.00;101664.63;5067868;28;20028;-90
2022/10/28 03:34:50;;;;;;;25.30;11.65;;;;;;;11.31;100.00;101662.88;5068028;28;20017;-89
2022/10/28 03:37:15;;;;;;;21.42;10.70;;;;;;;11.30;100.00;101658.56;5067748;28;20047;-90
2022/10/28 03:39:40;;;;;;;24.87;10.47;;;;;;;11.28;100.00;101657.72;5069720;28;20025;-89
2022/10/28 03:42:06;;;;;;;23.55;11.05;;;;;;;11.21;100.00;101655.22;5067278;28;20278;-90
2022/10/28 03:44:31;;;;;;;22.15;9.55;;;;;;;11.24;100.00;101666.44;5069304;28;20028;-89
2022/10/28 03:46:56;;;;;;;20.95;10.30;;;;;;;11.23;100.00;101664.69;5071465;28;20043;-89
2022/10/28 03:49:22;;;;;;;24.95;11.27;;;;;;;11.22;100.00;101664.72;5069591;28;20115;-89
2022/10/28 03:51:47;;;;;;;25.55;12.13;;;;;;;11.18;100.00;101656.13;5067292;28;20178;-90
2022/10/28 03:54:13;;;;;;;26.42;10.90;;;;;;;11.17;100.00;101662.19;5066060;28;20025;-89
2022/10/28 03:56:39;;;;;;;21.70;10.55;;;;;;;11.15;100.00;101655.28;5066039;28;20033;-90
2022/10/28 03:59:08;;;;;;;24.50;10.48;;;;;;;11.15;100.00;101665.66;5079445;28;20036;-90
2022/10/28 04:01:33;;;;;;;19.98;10.27;;;;;;;11.16;100.00;101662.22;5068178;28;20119;-89
2022/10/28 04:03:59;;;;;;;21.67;10.10;;;;;;;11.14;100.00;101651.84;5067811;28;20095;-89
2022/10/28 04:06:24;;;;;;;20.48;9.48;;;;;;;11.13;100.00;101663.09;5067751;28;20047;-89
2022/10/28 04:08:49;;;;;;;18.67;9.60;;;;;;;11.13;100.00;101657.03;5067176;28;20479;-90
2022/10/28 04:11:15;;;;;;;20.30;9.35;;;;;;;11.13;100.00;101659.63;5067664;28;20044;-89
2022/10/28 04:13:40;;;;;;;17.83;9.55;;;;;;;11.09;100.00;101656.22;5079692;28;20101;-89
2022/10/28 04:16:06;;;;;;;17.65;8.68;;;;;;;11.08;100.00;101657.97;5077907;28;20051;-89
2022/10/28 04:18:31;;;;;;;17.88;9.13;;;;;;;11.13;100.00;101662.22;5068468;28;20032;-90
2022/10/28 04:20:57;;;;;;;22.10;9.40;;;;;;;11.09;100.00;101657.09;5068148;28;20330;-89
2022/10/28 04:23:22;;;;;;;19.27;9.90;;;;;;;11.09;100.00;101670.06;5067087;28;20062;-90
2022/10/28 04:25:53;;;;;;;19.90;9.18;;;;;;;11.05;100.00;101657.16;5069216;28;20028;-90
2022/10/28 04:28:21;;;;;;;21.73;9.63;;;;;;;11.06;100.00;101667.50;5067056;28;20389;-90
2022/10/28 04:30:46;;;;;;;16.58;8.82;;;;;;;10.99;100.00;101655.47;5080773;28;20074;-89
2022/10/28 04:33:14;;;;;;;19.42;9.05;;;;;;;11.03;100.00;101672.75;5068406;28;20032;-89
2022/10/28 04:35:42;;;;;;;16.98;8.23;;;;;;;11.03;100.00;101669.28;5068888;28;20021;-90
2022/10/28 04:38:10;;;;;;;22.05;9.50;;;;;;;10.98;100.00;101652.94;5066344;28;20032;-89
2022/10/28 04:40:36;;;;;;;20.63;9.88;;;;;;;10.96;100.00;101660.72;5069030;28;20505;-90
2022/10/28 04:43:01;;;;;;;18.73;9.27;;;;;;;10.99;100.00;101671.03;5062820;28;20086;-89
2022/10/28 04:45:26;;;;;;;19.30;9.13;;;;;;;10.96;100.00;101665.06;5073008;28;20034;-89
2022/10/28 04:47:56;;;;;;;16.75;8.68;;;;;;;10.92;100.00;101659.03;5076662;28;20025;-90
2022/10/28 04:50:22;;;;;;;18.77;8.63;;;;;;;10.95;100.00;101665.91;5069106;28;20074;-89
2022/10/28 04:52:47;;;;;;;22.00;8.80;;;;;;;10.95;100.00;101674.56;5064580;28;20032;-90
2022/10/28 04:55:13;;;;;;;16.17;8.82;;;;;;;10.88;100.00;101662.53;5071794;28;20032;-89
2022/10/28 04:57:38;;;;;;;16.45;8.52;;;;;;;10.90;100.00;101660.81;5062255;28;20088;-90
2022/10/28 05:00:04;;;;;;;19.40;8.77;;;;;;;10.86;100.00;101655.66;5078350;28;20036;-90
2022/10/28 05:02:29;;;;;;;17.65;8.98;;;;;;;10.81;100.00;101642.75;5070229;28;20781;-91
2022/10/28 05:04:59;;;;;;;22.83;9.20;;;;;;;10.85;100.00;101659.16;5071022;28;20059;-90
2022/10/28 05:07:24;;;;;;;16.02;8.60;;;;;;;10.82;100.00;101660.03;5086284;28;20684;-89
2022/10/28 05:09:50;;;;;;;18.15;8.93;;;;;;;10.83;100.00;101663.47;5072292;28;20040;-90
2022/10/28 05:12:15;;;;;;;18.27;8.52;;;;;;;10.78;100.00;101647.94;5071470;28;20025;-90
2022/10/28 05:14:41;;;;;;;17.95;8.32;;;;;;;10.69;100.00;101648.06;5070703;28;20085;-90
2022/10/28 05:17:09;;;;;;;18.15;8.55;;;;;;;10.73;100.00;101660.13;5072669;28;20020;-91
2022/10/28 05:19:34;;;;;;;19.92;9.20;;;;;;;10.64;100.00;101648.09;5071178;28;20024;-89
2022/10/28 05:21:59;;;;;;;18.42;9.23;;;;;;;10.66;100.00;101646.38;5070008;28;20113;-90
2022/10/28 05:24:25;;;;;;;17.30;8.73;;;;;;;10.72;100.00;101654.94;5069754;28;20435;-90
2022/10/28 05:26:50;;;;;;;18.55;8.73;;;;;;;10.61;100.00;101648.16;5072425;28;20103;-90
2022/10/28 05:29:18;;;;;;;20.52;8.63;;;;;;;10.58;100.00;101642.13;5071859;28;20107;-90
2022/10/28 05:31:44;;;;;;;16.73;8.85;;;;;;;10.62;100.00;101651.63;5072077;28;20029;-90
2022/10/28 05:34:09;;;;;;;19.92;8.38;;;;;;;10.61;100.00;101645.56;5067610;28;20025;-90
2022/10/28 05:36:35;;;;;;;19.70;8.68;;;;;;;10.61;100.00;101648.16;5072288;28;20025;-90
2022/10/28 05:39:00;;;;;;;17.02;8.40;;;;;;;10.56;100.00;101636.13;5070755;28;20040;-90
2022/10/28 05:41:25;;;;;;;18.10;8.40;;;;;;;10.59;100.00;101636.94;5070423;28;20708;-90
2022/10/28 05:43:52;;;;;;;21.85;9.18;;;;;;;10.57;100.00;101646.50;5070414;28;20020;-90
2022/10/28 05:46:17;;;;;;;17.67;8.93;;;;;;;10.58;100.00;101647.31;5071409;28;20028;-90
2022/10/28 05:48:42;;;;;;;20.40;8.70;;;;;;;10.56;100.00;101644.78;5069935;28;20020;-90
2022/10/28 05:51:08;;;;;;;19.15;8.52;;;;;;;10.55;100.00;101648.22;5070656;28;20140;-89
2022/10/28 05:53:33;;;;;;;19.27;8.50;;;;;;;10.51;100.00;101640.47;5071121;28;20035;-90
2022/10/28 05:55:59;;;;;;;17.73;7.60;;;;;;;10.48;100.00;101645.72;5070047;28;20063;-90
2022/10/28 05:58:24;;;;;;;18.90;8.63;;;;;;;10.52;100.00;101649.97;5071055;28;20032;-90
2022/10/28 06:00:50;;;;;;;21.40;8.73;;;;;;;10.45;100.00;101646.59;5071180;28;20024;-90
2022/10/28 06:03:15;;;;;;;18.00;8.52;;;;;;;10.44;100.00;101644.88;5070368;28;20028;-90
2022/10/28 06:05:44;;;;;;;20.50;8.07;;;;;;;10.47;100.00;101650.03;5064707;28;20410;-89
2022/10/28 06:08:13;;;;;;;18.70;7.82;;;;;;;10.48;100.00;101659.53;5071872;28;20029;-91
2022/10/28 06:10:39;;;;;;;19.85;8.20;;;;;;;10.40;100.00;101644.94;5075147;28;20051;-92
2022/10/28 06:13:05;;;;;;;20.50;8.55;;;;;;;10.36;100.00;101643.25;5070566;28;20050;-91
2022/10/28 06:15:30;;;;;;;22.80;8.85;;;;;;;10.37;100.00;101643.25;5071120;28;20421;-91
2022/10/28 06:17:55;;;;;;;18.95;8.15;;;;;;;10.42;100.00;101656.16;5070457;28;20028;-92
2022/10/28 06:20:21;;;;;;;18.33;7.57;;;;;;;10.44;100.00;101657.84;5068289;28;20052;-91
2022/10/28 06:22:51;;;;;;;18.13;8.57;;;;;;;10.42;100.00;101651.81;5072257;28;20381;-91
2022/10/28 06:25:18;;;;;;;20.58;8.43;;;;;;;10.39;100.00;101646.66;5069537;28;20036;-91
2022/10/28 06:27:43;;;;;;;19.10;7.97;;;;;;;10.42;100.00;101663.91;5071513;28;20055;-92
2022/10/28 06:30:09;;;;;;;19.27;7.97;;;;;;;10.46;100.00;101666.47;5070447;28;20371;-91
2022/10/28 06:32:35;;;;;;;20.85;8.18;;;;;;;10.39;100.00;101656.16;5071437;28;20028;-91
2022/10/28 06:35:03;;;;;;;18.10;7.75;;;;;;;10.48;100.00;101669.03;5068868;28;20057;-91
2022/10/28 06:37:29;;;;;;;20.17;8.20;;;;;;;10.38;100.00;101644.06;5069437;28;20075;-92
2022/10/28 06:39:55;;;;;;;20.65;7.82;;;;;;;10.43;100.00;101648.38;5082011;28;20048;-91
2022/10/28 06:42:20;;;;;;;17.48;8.13;;;;;;;10.45;100.00;101641.41;5070355;28;20025;-91
2022/10/28 06:44:45;;;;;;;17.50;7.85;;;;;;;10.46;100.00;101648.31;5065408;28;20028;-92
2022/10/28 06:47:11;;;;;;;19.00;8.45;;;;;;;10.45;100.00;101636.22;5070399;28;20024;-91
2022/10/28 06:49:36;;;;;;;18.23;7.95;;;;;;;10.60;100.00;101659.41;5069209;28;20012;-90
2022/10/28 06:52:02;;;;;;;18.75;7.55;;;;;;;10.64;100.00;101655.06;5077311;28;20058;-91
2022/10/28 06:54:27;;;;;;;21.05;7.90;;;;;;;10.73;100.00;101662.72;5069004;28;20032;-92
2022/10/28 06:56:53;;;;;;;22.50;7.65;;;;;;;10.68;100.00;101648.94;5069590;28;20024;-92
2022/10/28 06:59:18;;;;;;;20.75;8.13;;;;;;;10.77;100.00;101656.63;5068556;28;20025;-93
2022/10/28 07:01:43;;;;;;;19.20;7.82;;;;;;;10.72;100.00;101639.38;5067551;28;20541;-91
2022/10/28 07:04:12;;;;;;;16.83;7.90;;;;;;;10.84;100.00;101655.69;5065780;28;20045;-92
2022/10/28 07:06:39;;;;;;;20.45;7.53;;;;;;;10.89;100.00;101658.22;5068558;28;20059;-91
2022/10/28 07:09:05;;;;;;;19.45;7.82;;;;;;;10.87;100.00;101655.63;5086337;28;20048;-91
2022/10/28 07:11:30;;;;;;;17.70;7.47;;;;;;;10.95;100.00;101661.59;5071358;28;20029;-91
2022/10/28 07:13:58;;;;;;;20.10;7.75;;;;;;;10.94;100.00;101648.63;5070490;28;20086;-91
2022/10/28 07:16:26;;;;;;;16.42;7.68;;;;;;;11.05;100.00;101660.59;5063912;28;20035;-92
2022/10/28 07:18:52;;;;;;;19.45;7.82;;;;;;;11.06;100.00;101657.13;5070756;28;20092;-91
2022/10/28 07:21:17;;;;;;;17.55;7.90;;;;;;;11.11;100.00;101654.50;5068773;28;20124;-91
2022/10/28 07:23:45;;;;;;;17.33;7.53;;;;;;;11.26;100.00;101669.00;5070345;28;20103;-92
2022/10/28 07:26:10;;;;;;;17.25;7.55;;;;;;;11.32;100.00;101659.41;5067898;28;20641;-91
2022/10/28 07:28:36;;;;;;;16.23;7.30;;;;;;;11.41;100.00;101666.19;5070442;28;20032;-91
2022/10/28 07:31:01;;;;;;;20.77;8.57;;;;;;;11.46;100.00;101652.25;5069295;28;20032;-91
2022/10/28 07:33:27;;;;;;;23.88;9.40;;;;;;;11.66;100.00;101666.69;5070571;28;20074;-91
2022/10/28 07:35:52;;;;;;;23.02;8.70;;;;;;;11.71;100.00;101660.56;5068161;28;20020;-91
2022/10/28 07:38:18;;;;;;;17.27;8.48;;;;;;;11.97;100.00;101677.50;5068033;28;20035;-92
2022/10/28 07:40:43;;;;;;;18.83;8.60;;;;;;;12.14;100.00;101686.75;5070486;28;20449;-91
2022/10/28 07:43:09;;;;;;;22.92;9.18;;;;;;;12.27;100.00;101674.41;5069047;28;20028;-92
2022/10/28 07:45:35;;;;;;;20.58;8.45;;;;;;;12.32;100.00;101656.09;5062308;28;20066;-92
2022/10/28 07:48:01;;;;;;;25.45;9.23;;;;;;;12.48;100.00;101663.63;5070042;28;20043;-91
2022/10/28 07:50:26;;;;;;;21.67;9.18;;;;;;;12.56;100.00;101660.84;5066710;28;20457;-91
2022/10/28 07:52:52;;;;;;;24.52;10.20;;;;;;;12.73;100.00;101652.75;5069974;28;20517;-91
2022/10/28 07:55:17;;;;;;;24.75;9.65;;;;;;;12.86;100.00;101642.06;5060885;28;20511;-91
2022/10/28 07:57:42;;;;;;;26.23;10.45;;;;;;;13.06;100.00;101652.06;5066114;28;20033;-91
2022/10/28 08:00:09;;;;;;;23.45;9.32;;;;;;;13.17;100.00;101642.28;5069147;28;20039;-91
2022/10/28 08:02:34;;;;;;;25.00;9.23;;;;;;;13.36;100.00;101642.75;5068050;28;20032;-91
2022/10/28 08:05:01;;;;;;;22.15;9.10;;;;;;;13.62;100.00;101652.59;5068623;28;20031;-91
2022/10/28 08:07:26;;;;;;;22.58;9.38;;;;;;;13.76;100.00;101640.94;5069729;28;20464;-91
2022/10/28 08:09:52;;;;;;;25.88;9.90;;;;;;;13.98;100.00;101656.06;5067788;28;20048;-92
2022/10/28 08:12:17;;;;;;;19.17;8.98;;;;;;;13.98;100.00;101649.09;5072274;28;20143;-91
2022/10/28 08:14:43;;;;;;;27.25;8.95;;;;;;;14.19;100.00;101656.34;5067236;28;20021;-92
2022/10/28 08:17:11;;;;;;;28.15;9.93;;;;;;;14.26;100.00;101641.44;5068677;28;20534;-91
2022/10/28 08:19:38;;;;;;;21.88;8.73;;;;;;;14.52;100.00;101659.03;5075326;28;20051;-91
2022/10/28 08:22:05;;;;;;;27.70;9.27;;;;;;;14.56;100.00;101645.84;5068149;28;20546;-92
2022/10/28 08:24:30;;;;;;;25.83;9.18;;;;;;;14.70;100.00;101639.41;5070888;28;20044;-92
2022/10/28 08:26:56;;;;;;;24.23;8.68;;;;;;;14.97;100.00;101670.81;5068867;28;20120;-91
2022/10/28 08:29:21;;;;;;;24.33;8.98;;;;;;;14.97;100.00;101651.66;5068543;28;20048;-92
2022/10/28 08:31:47;;;;;;;31.55;9.40;;;;;;;15.11;100.00;101665.19;5068034;28;20519;-91
2022/10/28 08:34:12;;;;;;;29.23;9.40;;;;;;;15.28;100.00;101672.53;5069708;28;20021;-91
2022/10/28 08:36:37;;;;;;;27.83;9.00;;;;;;;15.34;100.00;101667.13;5062608;28;20037;-92
2022/10/28 08:39:03;;;;;;;23.77;9.27;;;;;;;15.47;100.00;101676.28;5079803;28;20069;-92
2022/10/28 08:41:50;;;;;;;23.90;9.23;;;;;;;15.53;100.00;101675.28;5067795;28;20028;-92
2022/10/28 08:44:19;;;;;;;21.80;8.77;;;;;;;15.58;100.00;101679.44;5067898;28;20039;-92
2022/10/28 08:46:53;;;;;;;26.92;8.50;;;;;;;15.58;100.00;101675.97;5065619;28;20032;-92
2022/10/28 08:49:49;;;;;;;21.80;8.55;;;;;;;15.57;100.00;101682.97;5065298;28;20409;-91
2022/10/28 08:52:42;;;;;;;20.95;8.57;;;;;;;15.50;100.00;101662.25;5062578;28;21554;-92
2022/10/28 08:55:10;;;;;;;19.63;7.93;;;;;;;15.59;100.00;101673.31;5067434;28;20029;-90
2022/10/28 08:57:56;;;;;;;20.05;8.40;;;;;;;15.54;100.00;101656.94;5067561;28;20020;-89
2022/10/28 09:00:25;;;;;;;21.50;8.23;;;;;;;15.67;100.00;101665.25;5061579;28;20115;-90
2022/10/28 09:03:10;;;;;;;22.00;9.20;;;;;;;15.82;100.00;101663.91;5069616;28;20024;-91
2022/10/28 09:05:37;;;;;;;24.30;9.30;;;;;;;15.91;100.00;101656.59;5057337;28;20029;-91
2022/10/28 09:08:04;;;;;;;21.05;9.30;;;;;;;16.06;100.00;101648.25;5068848;28;20350;-91
2022/10/28 09:11:15;;;;;;;20.95;8.75;;;;;;;16.33;100.00;101671.78;5069026;28;20528;-91
2022/10/28 09:13:46;;;;;;;23.75;8.50;;;;;;;16.47;100.00;101672.16;5069508;28;20078;-91
2022/10/28 09:16:11;;;;;;;27.25;9.20;;;;;;;16.69;100.00;101680.16;5068207;28;20024;-91
2022/10/28 09:18:54;;;;;;;25.23;9.07;;;;;;;16.82;100.00;101679.66;5069230;28;20062;-91
2022/10/28 09:21:31;;;;;;;25.40;9.25;;;;;;;16.95;100.00;101677.44;5068169;28;20020;-91
2022/10/28 09:23:59;;;;;;;21.75;8.40;;;;;;;17.04;100.00;101679.72;5067684;28;20021;-91
2022/10/28 09:26:37;;;;;;;23.48;9.15;;;;;;;17.13;100.00;101689.84;5079877;28;20969;-91
2022/10/28 09:29:11;;;;;;;22.23;9.20;;;;;;;17.22;100.00;101686.88;5067953;28;20035;-91
2022/10/28 09:31:41;;;;;;;21.75;9.10;;;;;;;17.41;100.00;101687.03;5070686;28;20029;-91
2022/10/28 09:34:13;;;;;;;24.58;8.70;;;;;;;17.62;100.00;101678.38;5072762;28;20038;-91
2022/10/28 09:36:46;;;;;;;21.02;8.43;;;;;;;17.84;100.00;101686.25;5071773;28;20094;-90
2022/10/28 09:39:17;;;;;;;17.25;8.90;;;;;;;17.91;100.00;101669.34;5061798;28;20038;-91
2022/10/28 09:41:44;;;;;;;23.63;8.77;;;;;;;18.10;100.00;101685.16;5076929;28;20378;-91
2022/10/28 09:44:31;;;;;;;23.92;8.30;;;;;;;18.19;100.00;101683.94;5059220;28;20032;-92
2022/10/28 09:46:59;;;;;;;19.70;8.60;;;;;;;18.28;100.00;101694.91;5072205;28;20028;-90
2022/10/28 09:49:33;;;;;;;24.17;8.40;;;;;;;18.32;100.00;101704.34;5071804;28;20028;-91
2022/10/28 09:52:13;;;;;;;21.00;8.60;;;;;;;18.32;100.00;101687.75;5072876;28;20111;-91
2022/10/28 09:54:46;;;;;;;21.42;9.27;;;;;;;18.34;100.00;101678.91;5066645;28;20027;-90
2022/10/28 09:57:11;;;;;;;23.35;8.75;;;;;;;18.44;99.26;101685.44;5069908;28;20028;-90
2022/10/28 09:59:37;;;;;;;19.60;8.27;;;;;;;18.50;98.52;101682.56;5071284;28;20055;-90
2022/10/28 10:02:03;;;;;;;17.73;7.68;;;;;;;18.59;98.38;101686.59;5070392;28;20101;-91
2022/10/28 10:04:34;;;;;;;19.63;7.97;;;;;;;18.65;98.68;101696.84;5071270;28;20056;-91
2022/10/28 10:07:08;;;;;;;16.75;7.35;;;;;;;18.70;97.08;101692.22;5071639;28;20028;-90
2022/10/28 10:09:36;;;;;;;18.98;7.97;;;;;;;18.73;97.80;101702.63;5071534;28;20453;-90
2022/10/28 10:12:06;;;;;;;19.50;7.40;;;;;;;18.75;96.40;101692.91;5082904;28;20482;-90
2022/10/28 10:14:40;;;;;;;24.55;7.20;;;;;;;18.79;97.80;101689.19;5072009;28;20025;-91
2022/10/28 10:17:13;;;;;;;18.88;7.40;;;;;;;18.86;96.80;101690.63;5075972;28;20066;-91
2022/10/28 10:20:04;;;;;;;21.33;7.25;;;;;;;18.99;98.04;101690.94;5061189;28;20033;-90
2022/10/28 10:22:34;;;;;;;22.98;7.10;;;;;;;19.00;96.51;101687.41;5072269;28;20028;-91
2022/10/28 10:25:00;;;;;;;17.48;7.13;;;;;;;19.09;97.22;101686.13;5071469;28;20063;-91
2022/10/28 10:27:29;;;;;;;18.67;7.07;;;;;;;19.11;95.98;101686.88;5072638;28;20085;-91
2022/10/28 10:29:56;;;;;;;16.90;6.93;;;;;;;19.26;95.00;101699.34;5070667;28;20025;-90
2022/10/28 10:32:27;;;;;;;19.38;7.50;;;;;;;19.32;95.89;101684.13;5066150;28;20024;-91
2022/10/28 10:35:03;;;;;;;18.77;6.70;;;;;;;19.40;95.61;101681.16;5072116;28;20024;-91
2022/10/28 10:37:32;;;;;;;22.88;6.80;;;;;;;19.45;94.24;101675.69;5063857;28;20128;-91
2022/10/28 10:40:20;;;;;;;24.45;6.90;;;;;;;19.60;94.99;101694.25;5068902;28;20643;-92
2022/10/28 10:42:46;;;;;;;24.30;7.32;;;;;;;19.54;91.54;101676.13;5075282;28;20024;-91
2022/10/28 10:45:14;;;;;;;25.52;6.55;;;;;;;19.67;90.92;101687.75;5068965;28;20119;-91
2022/10/28 10:47:39;;;;;;;20.55;6.60;;;;;;;19.70;90.66;101673.63;5068464;28;20039;-91
2022/10/28 10:50:23;;;;;;;19.17;6.78;;;;;;;19.81;90.52;101678.34;5071953;28;20024;-90
2022/10/28 10:52:53;;;;;;;19.70;6.38;;;;;;;19.88;88.47;101661.34;5066541;28;20116;-91
2022/10/28 10:55:26;;;;;;;14.63;6.18;;;;;;;19.97;88.78;101663.53;5074405;28;20035;-90
2022/10/28 10:57:52;;;;;;;17.55;5.93;;;;;;;20.02;85.77;101662.34;5070388;28;20016;-91
2022/10/28 11:00:20;;;;;;;20.40;6.00;;;;;;;20.16;88.41;101663.44;5070958;28;20058;-90
2022/10/28 11:02:46;;;;;;;22.30;6.20;;;;;;;20.21;83.41;101654.38;5078100;28;20035;-90
2022/10/28 11:05:20;;;;;;;18.27;6.00;;;;;;;20.23;85.54;101635.88;5069738;28;20034;-91
2022/10/28 11:07:47;;;;;;;;;;;;;;;20.37;91.58;101652.72;5070051;28;20021;-90
2022/10/28 11:10:25;;;;;;;18.95;5.93;;;;;;;20.42;86.84;101677.03;5070941;28;19966;-90
2022/10/28 11:12:56;;;;;;;17.63;5.72;;;;;;;20.52;83.69;101668.66;5069308;28;20040;-90
2022/10/28 11:15:27;;;;;;;19.05;5.78;;;;;;;20.55;84.26;101669.31;5070249;28;20405;-90
2022/10/28 11:18:15;;;;;;;16.92;5.75;;;;;;;20.63;82.99;101672.41;5077307;28;20067;-91
2022/10/28 11:21:22;;;;;;;23.60;5.95;;;;;;;20.68;85.08;101666.91;5067652;28;20426;-91